sensor_id;sensor_type;location;lat;lon;timestamp;P1;durP1;ratioP1;P2;durP2;ratioP2
73571;SDS011;61854;48.510;-2.770;2022-09-20T00:00:05;7.35;;;4.20;;
73571;SDS011;61854;48.510;-2.770;2022-09-20T00:02:31;8.23;;;4.22;;
73571;SDS011;61854;48.510;-2.770;2022-09-20T00:04:57;9.05;;;4.00;;
73571;SDS011;61854;48.510;-2.770;2022-09-20T00:07:22;7.60;;;4.07;;
73571;SDS011;61854;48.510;-2.770;2022-09-20T00:09:48;6.78;;;3.95;;
73571;SDS011;61854;48.510;-2.770;2022-09-20T00:12:14;9.27;;;3.95;;
73571;SDS011;61854;48.510;-2.770;2022-09-20T00:14:40;7.70;;;3.10;;
73571;SDS011;61854;48.510;-2.770;2022-09-20T00:17:06;7.40;;;3.28;;
73571;SDS011;61854;48.510;-2.770;2022-09-20T00:19:31;6.65;;;2.95;;
73571;SDS011;61854;48.510;-2.770;2022-09-20T00:21:57;6.82;;;3.00;;
73571;SDS011;61854;48.510;-2.770;2022-09-20T00:24:23;6.20;;;3.00;;
73571;SDS011;61854;48.510;-2.770;2022-09-20T00:26:49;3.85;;;2.40;;
73571;SDS011;61854;48.510;-2.770;2022-09-20T00:29:15;6.18;;;2.55;;
73571;SDS011;61854;48.510;-2.770;2022-09-20T00:31:41;3.63;;;2.17;;
73571;SDS011;61854;48.510;-2.770;2022-09-20T00:34:07;5.60;;;1.92;;
73571;SDS011;61854;48.510;-2.770;2022-09-20T00:36:52;3.35;;;2.20;;
73571;SDS011;61854;48.510;-2.770;2022-09-20T00:39:18;3.92;;;2.45;;
73571;SDS011;61854;48.510;-2.770;2022-09-20T00:41:44;4.07;;;2.30;;
73571;SDS011;61854;48.510;-2.770;2022-09-20T00:53:13;3.55;;;2.20;;
73571;SDS011;61854;48.510;-2.770;2022-09-20T00:55:48;3.70;;;2.33;;
73571;SDS011;61854;48.510;-2.770;2022-09-20T00:58:21;3.58;;;2.50;;
73571;SDS011;61854;48.510;-2.770;2022-09-20T01:00:50;3.97;;;2.90;;
73571;SDS011;61854;48.510;-2.770;2022-09-20T01:03:18;4.72;;;2.45;;
73571;SDS011;61854;48.510;-2.770;2022-09-20T01:08:14;4.90;;;2.75;;
73571;SDS011;61854;48.510;-2.770;2022-09-20T01:10:39;7.45;;;2.80;;
73571;SDS011;61854;48.510;-2.770;2022-09-20T01:13:06;5.07;;;2.75;;
73571;SDS011;61854;48.510;-2.770;2022-09-20T01:15:32;5.88;;;2.90;;
73571;SDS011;61854;48.510;-2.770;2022-09-20T01:18:00;5.30;;;3.33;;
73571;SDS011;61854;48.510;-2.770;2022-09-20T01:20:28;4.75;;;2.58;;
73571;SDS011;61854;48.510;-2.770;2022-09-20T01:28:47;6.23;;;2.80;;
73571;SDS011;61854;48.510;-2.770;2022-09-20T01:31:21;5.13;;;2.90;;
73571;SDS011;61854;48.510;-2.770;2022-09-20T01:36:37;5.10;;;3.20;;
73571;SDS011;61854;48.510;-2.770;2022-09-20T01:39:24;4.70;;;2.97;;
73571;SDS011;61854;48.510;-2.770;2022-09-20T01:42:01;5.18;;;2.22;;
73571;SDS011;61854;48.510;-2.770;2022-09-20T01:44:39;5.28;;;2.70;;
73571;SDS011;61854;48.510;-2.770;2022-09-20T01:47:36;6.00;;;2.70;;
73571;SDS011;61854;48.510;-2.770;2022-09-20T01:56:10;5.32;;;3.03;;
73571;SDS011;61854;48.510;-2.770;2022-09-20T01:59:10;5.88;;;2.47;;
73571;SDS011;61854;48.510;-2.770;2022-09-20T02:07:47;7.63;;;2.60;;
73571;SDS011;61854;48.510;-2.770;2022-09-20T02:13:16;5.00;;;2.65;;
73571;SDS011;61854;48.510;-2.770;2022-09-20T02:16:11;5.95;;;2.80;;
73571;SDS011;61854;48.510;-2.770;2022-09-20T02:21:42;5.30;;;3.15;;
73571;SDS011;61854;48.510;-2.770;2022-09-20T02:35:19;4.53;;;3.60;;
73571;SDS011;61854;48.510;-2.770;2022-09-20T02:38:08;6.80;;;3.92;;
73571;SDS011;61854;48.510;-2.770;2022-09-20T02:46:21;5.28;;;3.95;;
73571;SDS011;61854;48.510;-2.770;2022-09-20T02:49:09;5.68;;;4.68;;
73571;SDS011;61854;48.510;-2.770;2022-09-20T02:51:38;5.93;;;5.30;;
73571;SDS011;61854;48.510;-2.770;2022-09-20T02:54:15;7.13;;;5.65;;
73571;SDS011;61854;48.510;-2.770;2022-09-20T02:57:01;8.20;;;5.35;;
73571;SDS011;61854;48.510;-2.770;2022-09-20T03:05:41;8.25;;;5.07;;
73571;SDS011;61854;48.510;-2.770;2022-09-20T03:11:21;9.45;;;5.55;;
73571;SDS011;61854;48.510;-2.770;2022-09-20T03:14:02;6.72;;;5.32;;
73571;SDS011;61854;48.510;-2.770;2022-09-20T03:16:50;6.47;;;5.85;;
73571;SDS011;61854;48.510;-2.770;2022-09-20T03:19:51;8.98;;;6.43;;
73571;SDS011;61854;48.510;-2.770;2022-09-20T03:27:47;9.75;;;6.60;;
73571;SDS011;61854;48.510;-2.770;2022-09-20T03:35:53;7.68;;;6.57;;
73571;SDS011;61854;48.510;-2.770;2022-09-20T03:38:43;7.18;;;6.43;;
73571;SDS011;61854;48.510;-2.770;2022-09-20T03:46:27;7.63;;;6.32;;
73571;SDS011;61854;48.510;-2.770;2022-09-20T03:57:46;8.35;;;6.47;;
73571;SDS011;61854;48.510;-2.770;2022-09-20T04:00:24;8.40;;;6.68;;
73571;SDS011;61854;48.510;-2.770;2022-09-20T04:14:44;7.20;;;6.15;;
73571;SDS011;61854;48.510;-2.770;2022-09-20T04:22:40;9.27;;;6.07;;
73571;SDS011;61854;48.510;-2.770;2022-09-20T04:25:13;12.43;;;6.43;;
73571;SDS011;61854;48.510;-2.770;2022-09-20T04:28:01;8.18;;;6.18;;
73571;SDS011;61854;48.510;-2.770;2022-09-20T04:30:34;8.60;;;6.93;;
73571;SDS011;61854;48.510;-2.770;2022-09-20T04:33:13;8.52;;;6.45;;
73571;SDS011;61854;48.510;-2.770;2022-09-20T04:38:35;9.55;;;6.55;;
73571;SDS011;61854;48.510;-2.770;2022-09-20T04:57:55;8.40;;;7.60;;
73571;SDS011;61854;48.510;-2.770;2022-09-20T05:00:34;9.93;;;7.35;;
73571;SDS011;61854;48.510;-2.770;2022-09-20T05:03:58;9.25;;;7.72;;
73571;SDS011;61854;48.510;-2.770;2022-09-20T05:12:15;13.13;;;8.30;;
73571;SDS011;61854;48.510;-2.770;2022-09-20T05:20:05;11.93;;;8.20;;
73571;SDS011;61854;48.510;-2.770;2022-09-20T05:28:06;13.52;;;7.50;;
73571;SDS011;61854;48.510;-2.770;2022-09-20T05:31:03;9.82;;;7.47;;
73571;SDS011;61854;48.510;-2.770;2022-09-20T05:36:18;10.25;;;8.32;;
73571;SDS011;61854;48.510;-2.770;2022-09-20T05:52:58;12.20;;;7.30;;
73571;SDS011;61854;48.510;-2.770;2022-09-20T06:04:14;10.75;;;8.27;;
73571;SDS011;61854;48.510;-2.770;2022-09-20T06:07:12;13.70;;;7.60;;
73571;SDS011;61854;48.510;-2.770;2022-09-20T06:10:08;9.27;;;6.57;;
73571;SDS011;61854;48.510;-2.770;2022-09-20T06:13:00;9.68;;;6.78;;
73571;SDS011;61854;48.510;-2.770;2022-09-20T06:18:29;12.80;;;6.90;;
73571;SDS011;61854;48.510;-2.770;2022-09-20T06:23:51;16.92;;;6.90;;
73571;SDS011;61854;48.510;-2.770;2022-09-20T06:26:23;13.07;;;6.20;;
73571;SDS011;61854;48.510;-2.770;2022-09-20T06:28:57;21.73;;;7.10;;
73571;SDS011;61854;48.510;-2.770;2022-09-20T06:31:27;16.50;;;7.05;;
73571;SDS011;61854;48.510;-2.770;2022-09-20T06:36:22;11.63;;;6.82;;
73571;SDS011;61854;48.510;-2.770;2022-09-20T06:42:10;14.27;;;6.88;;
73571;SDS011;61854;48.510;-2.770;2022-09-20T06:44:36;16.77;;;6.50;;
73571;SDS011;61854;48.510;-2.770;2022-09-20T06:47:05;13.85;;;6.90;;
73571;SDS011;61854;48.510;-2.770;2022-09-20T06:49:32;12.67;;;7.23;;
73571;SDS011;61854;48.510;-2.770;2022-09-20T06:52:00;9.55;;;6.38;;
73571;SDS011;61854;48.510;-2.770;2022-09-20T06:54:28;13.70;;;7.60;;
73571;SDS011;61854;48.510;-2.770;2022-09-20T06:57:03;16.40;;;7.38;;
73571;SDS011;61854;48.510;-2.770;2022-09-20T06:59:30;12.82;;;7.65;;
73571;SDS011;61854;48.510;-2.770;2022-09-20T07:01:56;13.70;;;6.22;;
73571;SDS011;61854;48.510;-2.770;2022-09-20T07:04:22;14.90;;;8.82;;
73571;SDS011;61854;48.510;-2.770;2022-09-20T07:06:48;16.40;;;7.45;;
73571;SDS011;61854;48.510;-2.770;2022-09-20T07:09:15;10.02;;;7.25;;
73571;SDS011;61854;48.510;-2.770;2022-09-20T07:11:41;15.77;;;7.28;;
73571;SDS011;61854;48.510;-2.770;2022-09-20T07:14:09;11.18;;;7.15;;
73571;SDS011;61854;48.510;-2.770;2022-09-20T07:16:34;14.93;;;6.45;;
73571;SDS011;61854;48.510;-2.770;2022-09-20T07:19:01;14.23;;;7.60;;
73571;SDS011;61854;48.510;-2.770;2022-09-20T07:21:27;10.38;;;6.63;;
73571;SDS011;61854;48.510;-2.770;2022-09-20T07:23:53;13.23;;;6.88;;
73571;SDS011;61854;48.510;-2.770;2022-09-20T07:26:25;11.52;;;6.05;;
73571;SDS011;61854;48.510;-2.770;2022-09-20T07:28:52;7.72;;;5.57;;
73571;SDS011;61854;48.510;-2.770;2022-09-20T07:31:19;9.55;;;6.13;;
73571;SDS011;61854;48.510;-2.770;2022-09-20T07:33:47;13.32;;;5.72;;
73571;SDS011;61854;48.510;-2.770;2022-09-20T07:36:13;16.40;;;5.82;;
73571;SDS011;61854;48.510;-2.770;2022-09-20T07:38:40;9.57;;;5.55;;
73571;SDS011;61854;48.510;-2.770;2022-09-20T07:41:07;12.45;;;6.03;;
73571;SDS011;61854;48.510;-2.770;2022-09-20T07:43:34;11.63;;;6.13;;
73571;SDS011;61854;48.510;-2.770;2022-09-20T07:46:00;13.05;;;6.00;;
73571;SDS011;61854;48.510;-2.770;2022-09-20T07:48:29;16.50;;;5.97;;
73571;SDS011;61854;48.510;-2.770;2022-09-20T07:53:53;12.18;;;6.30;;
73571;SDS011;61854;48.510;-2.770;2022-09-20T07:56:19;11.90;;;5.32;;
73571;SDS011;61854;48.510;-2.770;2022-09-20T07:58:44;14.23;;;5.90;;
73571;SDS011;61854;48.510;-2.770;2022-09-20T08:01:11;10.77;;;4.97;;
73571;SDS011;61854;48.510;-2.770;2022-09-20T08:03:38;12.80;;;5.35;;
73571;SDS011;61854;48.510;-2.770;2022-09-20T08:06:08;6.35;;;4.68;;
73571;SDS011;61854;48.510;-2.770;2022-09-20T08:08:37;8.13;;;4.60;;
73571;SDS011;61854;48.510;-2.770;2022-09-20T08:13:38;8.18;;;4.00;;
73571;SDS011;61854;48.510;-2.770;2022-09-20T08:16:06;10.98;;;4.30;;
73571;SDS011;61854;48.510;-2.770;2022-09-20T08:18:34;5.10;;;3.55;;
73571;SDS011;61854;48.510;-2.770;2022-09-20T08:21:03;8.52;;;3.38;;
73571;SDS011;61854;48.510;-2.770;2022-09-20T08:23:36;6.30;;;3.38;;
73571;SDS011;61854;48.510;-2.770;2022-09-20T08:26:04;5.45;;;3.08;;
73571;SDS011;61854;48.510;-2.770;2022-09-20T08:28:30;4.55;;;2.67;;
73571;SDS011;61854;48.510;-2.770;2022-09-20T08:31:04;2.95;;;2.20;;
73571;SDS011;61854;48.510;-2.770;2022-09-20T08:33:34;5.22;;;2.53;;
73571;SDS011;61854;48.510;-2.770;2022-09-20T08:36:07;6.20;;;2.38;;
73571;SDS011;61854;48.510;-2.770;2022-09-20T08:38:36;3.00;;;1.83;;
73571;SDS011;61854;48.510;-2.770;2022-09-20T08:41:03;7.32;;;2.30;;
73571;SDS011;61854;48.510;-2.770;2022-09-20T08:43:44;4.03;;;1.85;;
73571;SDS011;61854;48.510;-2.770;2022-09-20T08:46:16;6.00;;;2.33;;
73571;SDS011;61854;48.510;-2.770;2022-09-20T08:48:43;11.80;;;2.92;;
73571;SDS011;61854;48.510;-2.770;2022-09-20T08:51:11;8.90;;;2.38;;
73571;SDS011;61854;48.510;-2.770;2022-09-20T08:53:42;6.93;;;2.97;;
73571;SDS011;61854;48.510;-2.770;2022-09-20T08:56:14;8.57;;;3.22;;
73571;SDS011;61854;48.510;-2.770;2022-09-20T08:58:40;29.35;;;4.03;;
73571;SDS011;61854;48.510;-2.770;2022-09-20T09:01:06;27.25;;;3.70;;
73571;SDS011;61854;48.510;-2.770;2022-09-20T09:06:00;33.85;;;3.60;;
73571;SDS011;61854;48.510;-2.770;2022-09-20T09:08:27;16.63;;;2.33;;
73571;SDS011;61854;48.510;-2.770;2022-09-20T09:11:07;5.95;;;2.40;;
73571;SDS011;61854;48.510;-2.770;2022-09-20T09:16:23;12.57;;;2.80;;
73571;SDS011;61854;48.510;-2.770;2022-09-20T09:18:51;62.30;;;4.35;;
73571;SDS011;61854;48.510;-2.770;2022-09-20T09:21:23;5.82;;;2.22;;
73571;SDS011;61854;48.510;-2.770;2022-09-20T09:23:52;6.95;;;1.88;;
73571;SDS011;61854;48.510;-2.770;2022-09-20T09:26:40;6.78;;;1.67;;
73571;SDS011;61854;48.510;-2.770;2022-09-20T09:29:08;7.05;;;1.70;;
73571;SDS011;61854;48.510;-2.770;2022-09-20T09:31:43;10.93;;;1.95;;
73571;SDS011;61854;48.510;-2.770;2022-09-20T09:36:54;2.40;;;1.73;;
73571;SDS011;61854;48.510;-2.770;2022-09-20T09:39:31;5.70;;;1.80;;
73571;SDS011;61854;48.510;-2.770;2022-09-20T09:42:18;5.15;;;1.38;;
73571;SDS011;61854;48.510;-2.770;2022-09-20T09:44:45;3.95;;;1.70;;
73571;SDS011;61854;48.510;-2.770;2022-09-20T09:49:58;10.27;;;1.92;;
73571;SDS011;61854;48.510;-2.770;2022-09-20T09:52:24;5.45;;;1.70;;
73571;SDS011;61854;48.510;-2.770;2022-09-20T09:54:53;4.55;;;1.70;;
73571;SDS011;61854;48.510;-2.770;2022-09-20T10:00:23;9.48;;;1.88;;
73571;SDS011;61854;48.510;-2.770;2022-09-20T10:19:51;5.35;;;1.70;;
73571;SDS011;61854;48.510;-2.770;2022-09-20T10:25:19;4.50;;;1.80;;
73571;SDS011;61854;48.510;-2.770;2022-09-20T10:31:16;6.93;;;1.80;;
73571;SDS011;61854;48.510;-2.770;2022-09-20T10:33:44;4.13;;;1.30;;
73571;SDS011;61854;48.510;-2.770;2022-09-20T10:36:46;4.07;;;1.73;;
73571;SDS011;61854;48.510;-2.770;2022-09-20T10:39:30;13.03;;;2.10;;
73571;SDS011;61854;48.510;-2.770;2022-09-20T10:45:20;3.90;;;1.58;;
73571;SDS011;61854;48.510;-2.770;2022-09-20T10:48:04;4.07;;;1.58;;
73571;SDS011;61854;48.510;-2.770;2022-09-20T10:50:44;4.32;;;1.55;;
73571;SDS011;61854;48.510;-2.770;2022-09-20T10:53:35;4.00;;;1.30;;
73571;SDS011;61854;48.510;-2.770;2022-09-20T10:56:24;2.63;;;1.25;;
73571;SDS011;61854;48.510;-2.770;2022-09-20T11:05:16;4.22;;;1.35;;
73571;SDS011;61854;48.510;-2.770;2022-09-20T11:07:51;3.90;;;1.30;;
73571;SDS011;61854;48.510;-2.770;2022-09-20T11:10:27;10.60;;;1.45;;
73571;SDS011;61854;48.510;-2.770;2022-09-20T11:13:24;5.32;;;1.45;;
73571;SDS011;61854;48.510;-2.770;2022-09-20T11:15:57;5.70;;;1.33;;
73571;SDS011;61854;48.510;-2.770;2022-09-20T11:19:43;26.33;;;2.50;;
73571;SDS011;61854;48.510;-2.770;2022-09-20T11:21:37;3.65;;;1.52;;
73571;SDS011;61854;48.510;-2.770;2022-09-20T11:24:39;2.88;;;1.20;;
73571;SDS011;61854;48.510;-2.770;2022-09-20T11:30:26;13.35;;;1.67;;
73571;SDS011;61854;48.510;-2.770;2022-09-20T11:42:43;3.60;;;1.42;;
73571;SDS011;61854;48.510;-2.770;2022-09-20T11:45:10;5.78;;;1.55;;
73571;SDS011;61854;48.510;-2.770;2022-09-20T11:47:50;2.53;;;1.33;;
73571;SDS011;61854;48.510;-2.770;2022-09-20T11:53:19;7.25;;;1.58;;
73571;SDS011;61854;48.510;-2.770;2022-09-20T11:58:25;2.63;;;1.00;;
73571;SDS011;61854;48.510;-2.770;2022-09-20T12:00:53;2.25;;;1.23;;
73571;SDS011;61854;48.510;-2.770;2022-09-20T12:03:29;3.65;;;1.42;;
73571;SDS011;61854;48.510;-2.770;2022-09-20T12:06:04;2.67;;;1.08;;
73571;SDS011;61854;48.510;-2.770;2022-09-20T12:08:36;3.72;;;1.17;;
73571;SDS011;61854;48.510;-2.770;2022-09-20T12:11:05;2.08;;;1.40;;
73571;SDS011;61854;48.510;-2.770;2022-09-20T12:13:37;3.97;;;1.25;;
73571;SDS011;61854;48.510;-2.770;2022-09-20T12:16:06;3.35;;;1.20;;
73571;SDS011;61854;48.510;-2.770;2022-09-20T12:21:21;3.30;;;1.10;;
73571;SDS011;61854;48.510;-2.770;2022-09-20T12:29:00;5.00;;;1.25;;
73571;SDS011;61854;48.510;-2.770;2022-09-20T12:31:50;3.47;;;1.17;;
73571;SDS011;61854;48.510;-2.770;2022-09-20T12:44:39;2.50;;;1.23;;
73571;SDS011;61854;48.510;-2.770;2022-09-20T12:47:21;7.47;;;1.58;;
73571;SDS011;61854;48.510;-2.770;2022-09-20T12:49:53;12.13;;;2.60;;
73571;SDS011;61854;48.510;-2.770;2022-09-20T12:58:32;2.03;;;0.93;;
73571;SDS011;61854;48.510;-2.770;2022-09-20T13:03:35;4.55;;;1.10;;
73571;SDS011;61854;48.510;-2.770;2022-09-20T13:11:13;4.50;;;1.00;;
73571;SDS011;61854;48.510;-2.770;2022-09-20T13:24:26;6.43;;;1.20;;
73571;SDS011;61854;48.510;-2.770;2022-09-20T13:26:55;9.05;;;1.30;;
73571;SDS011;61854;48.510;-2.770;2022-09-20T13:29:30;4.82;;;1.40;;
73571;SDS011;61854;48.510;-2.770;2022-09-20T13:32:15;5.32;;;1.20;;
73571;SDS011;61854;48.510;-2.770;2022-09-20T13:34:42;6.50;;;1.30;;
73571;SDS011;61854;48.510;-2.770;2022-09-20T13:37:16;2.22;;;1.10;;
73571;SDS011;61854;48.510;-2.770;2022-09-20T13:39:51;2.95;;;1.17;;
73571;SDS011;61854;48.510;-2.770;2022-09-20T13:42:18;2.67;;;1.20;;
73571;SDS011;61854;48.510;-2.770;2022-09-20T13:44:45;4.15;;;1.42;;
73571;SDS011;61854;48.510;-2.770;2022-09-20T13:47:25;3.00;;;1.00;;
73571;SDS011;61854;48.510;-2.770;2022-09-20T13:49:53;4.25;;;1.40;;
73571;SDS011;61854;48.510;-2.770;2022-09-20T13:52:32;2.75;;;1.02;;
73571;SDS011;61854;48.510;-2.770;2022-09-20T13:54:57;2.10;;;1.05;;
73571;SDS011;61854;48.510;-2.770;2022-09-20T13:57:25;23.83;;;2.05;;
73571;SDS011;61854;48.510;-2.770;2022-09-20T13:59:52;35.00;;;2.38;;
73571;SDS011;61854;48.510;-2.770;2022-09-20T14:02:26;4.75;;;1.38;;
73571;SDS011;61854;48.510;-2.770;2022-09-20T14:04:55;3.60;;;1.15;;
73571;SDS011;61854;48.510;-2.770;2022-09-20T14:07:27;4.00;;;1.33;;
73571;SDS011;61854;48.510;-2.770;2022-09-20T14:09:54;13.05;;;1.90;;
73571;SDS011;61854;48.510;-2.770;2022-09-20T14:12:21;7.22;;;1.60;;
73571;SDS011;61854;48.510;-2.770;2022-09-20T14:14:48;2.40;;;1.30;;
73571;SDS011;61854;48.510;-2.770;2022-09-20T14:17:15;3.55;;;1.45;;
73571;SDS011;61854;48.510;-2.770;2022-09-20T14:19:46;12.98;;;1.67;;
73571;SDS011;61854;48.510;-2.770;2022-09-20T14:22:31;5.80;;;1.50;;
73571;SDS011;61854;48.510;-2.770;2022-09-20T14:25:01;3.88;;;1.40;;
73571;SDS011;61854;48.510;-2.770;2022-09-20T14:27:37;5.68;;;1.63;;
73571;SDS011;61854;48.510;-2.770;2022-09-20T14:30:03;12.60;;;1.95;;
73571;SDS011;61854;48.510;-2.770;2022-09-20T14:33:04;15.18;;;1.83;;
73571;SDS011;61854;48.510;-2.770;2022-09-20T14:35:23;2.30;;;1.13;;
73571;SDS011;61854;48.510;-2.770;2022-09-20T14:42:55;8.55;;;1.52;;
73571;SDS011;61854;48.510;-2.770;2022-09-20T14:50:29;11.90;;;1.40;;
73571;SDS011;61854;48.510;-2.770;2022-09-20T14:55:37;4.50;;;1.45;;
73571;SDS011;61854;48.510;-2.770;2022-09-20T14:58:12;5.35;;;1.30;;
73571;SDS011;61854;48.510;-2.770;2022-09-20T15:01:15;2.78;;;1.30;;
73571;SDS011;61854;48.510;-2.770;2022-09-20T15:03:51;3.33;;;1.20;;
73571;SDS011;61854;48.510;-2.770;2022-09-20T15:06:17;140.82;;;6.97;;
73571;SDS011;61854;48.510;-2.770;2022-09-20T15:08:43;10.93;;;1.40;;
73571;SDS011;61854;48.510;-2.770;2022-09-20T15:11:18;3.15;;;1.17;;
73571;SDS011;61854;48.510;-2.770;2022-09-20T15:13:44;3.65;;;1.30;;
73571;SDS011;61854;48.510;-2.770;2022-09-20T15:16:13;4.22;;;1.17;;
73571;SDS011;61854;48.510;-2.770;2022-09-20T15:18:41;3.92;;;1.20;;
73571;SDS011;61854;48.510;-2.770;2022-09-20T15:21:08;4.75;;;1.20;;
73571;SDS011;61854;48.510;-2.770;2022-09-20T15:23:35;16.40;;;1.70;;
73571;SDS011;61854;48.510;-2.770;2022-09-20T15:26:01;3.38;;;1.38;;
73571;SDS011;61854;48.510;-2.770;2022-09-20T15:28:27;6.97;;;1.52;;
73571;SDS011;61854;48.510;-2.770;2022-09-20T15:30:53;4.10;;;1.40;;
73571;SDS011;61854;48.510;-2.770;2022-09-20T15:33:19;3.47;;;1.33;;
73571;SDS011;61854;48.510;-2.770;2022-09-20T15:35:45;2.92;;;1.17;;
73571;SDS011;61854;48.510;-2.770;2022-09-20T15:38:12;18.38;;;1.98;;
73571;SDS011;61854;48.510;-2.770;2022-09-20T15:40:42;4.80;;;1.48;;
73571;SDS011;61854;48.510;-2.770;2022-09-20T15:43:18;3.70;;;1.30;;
73571;SDS011;61854;48.510;-2.770;2022-09-20T15:45:52;3.78;;;1.55;;
73571;SDS011;61854;48.510;-2.770;2022-09-20T15:48:20;3.97;;;1.30;;
73571;SDS011;61854;48.510;-2.770;2022-09-20T15:53:27;5.25;;;1.38;;
73571;SDS011;61854;48.510;-2.770;2022-09-20T15:55:55;3.45;;;1.55;;
73571;SDS011;61854;48.510;-2.770;2022-09-20T15:58:25;3.13;;;1.50;;
73571;SDS011;61854;48.510;-2.770;2022-09-20T16:00:51;6.13;;;1.40;;
73571;SDS011;61854;48.510;-2.770;2022-09-20T16:03:16;2.45;;;1.33;;
73571;SDS011;61854;48.510;-2.770;2022-09-20T16:05:42;4.78;;;1.60;;
73571;SDS011;61854;48.510;-2.770;2022-09-20T16:08:07;4.00;;;1.48;;
73571;SDS011;61854;48.510;-2.770;2022-09-20T16:10:33;3.55;;;1.80;;
73571;SDS011;61854;48.510;-2.770;2022-09-20T16:13:02;3.60;;;2.03;;
73571;SDS011;61854;48.510;-2.770;2022-09-20T16:15:27;5.68;;;1.90;;
73571;SDS011;61854;48.510;-2.770;2022-09-20T16:17:53;2.67;;;1.40;;
73571;SDS011;61854;48.510;-2.770;2022-09-20T16:20:38;6.93;;;2.47;;
73571;SDS011;61854;48.510;-2.770;2022-09-20T16:23:04;4.25;;;2.08;;
73571;SDS011;61854;48.510;-2.770;2022-09-20T16:25:29;3.22;;;1.63;;
73571;SDS011;61854;48.510;-2.770;2022-09-20T16:27:56;3.47;;;1.90;;
73571;SDS011;61854;48.510;-2.770;2022-09-20T16:30:22;5.32;;;2.38;;
73571;SDS011;61854;48.510;-2.770;2022-09-20T16:32:48;3.40;;;1.80;;
73571;SDS011;61854;48.510;-2.770;2022-09-20T16:35:14;3.92;;;1.98;;
73571;SDS011;61854;48.510;-2.770;2022-09-20T16:37:40;3.65;;;1.50;;
73571;SDS011;61854;48.510;-2.770;2022-09-20T16:40:06;4.40;;;2.15;;
73571;SDS011;61854;48.510;-2.770;2022-09-20T16:42:34;2.70;;;1.75;;
73571;SDS011;61854;48.510;-2.770;2022-09-20T16:45:01;3.83;;;1.97;;
73571;SDS011;61854;48.510;-2.770;2022-09-20T16:47:30;3.00;;;1.70;;
73571;SDS011;61854;48.510;-2.770;2022-09-20T16:49:56;3.47;;;1.73;;
73571;SDS011;61854;48.510;-2.770;2022-09-20T16:52:22;2.28;;;1.60;;
73571;SDS011;61854;48.510;-2.770;2022-09-20T16:54:50;4.00;;;1.63;;
73571;SDS011;61854;48.510;-2.770;2022-09-20T16:57:15;2.42;;;1.65;;
73571;SDS011;61854;48.510;-2.770;2022-09-20T16:59:41;3.20;;;2.25;;
73571;SDS011;61854;48.510;-2.770;2022-09-20T17:02:11;2.22;;;1.67;;
73571;SDS011;61854;48.510;-2.770;2022-09-20T17:04:37;2.78;;;1.65;;
73571;SDS011;61854;48.510;-2.770;2022-09-20T17:07:03;3.35;;;2.00;;
73571;SDS011;61854;48.510;-2.770;2022-09-20T17:09:29;4.35;;;1.85;;
73571;SDS011;61854;48.510;-2.770;2022-09-20T17:11:54;4.13;;;2.10;;
73571;SDS011;61854;48.510;-2.770;2022-09-20T17:14:20;2.83;;;1.83;;
73571;SDS011;61854;48.510;-2.770;2022-09-20T17:16:46;3.25;;;1.70;;
73571;SDS011;61854;48.510;-2.770;2022-09-20T17:19:12;3.60;;;1.60;;
73571;SDS011;61854;48.510;-2.770;2022-09-20T17:21:41;3.25;;;1.88;;
73571;SDS011;61854;48.510;-2.770;2022-09-20T17:24:10;3.67;;;1.88;;
73571;SDS011;61854;48.510;-2.770;2022-09-20T17:26:38;3.13;;;1.80;;
73571;SDS011;61854;48.510;-2.770;2022-09-20T17:29:07;4.78;;;2.20;;
73571;SDS011;61854;48.510;-2.770;2022-09-20T17:31:38;3.53;;;2.05;;
73571;SDS011;61854;48.510;-2.770;2022-09-20T17:34:06;3.40;;;2.30;;
73571;SDS011;61854;48.510;-2.770;2022-09-20T17:36:43;5.10;;;2.13;;
73571;SDS011;61854;48.510;-2.770;2022-09-20T17:39:10;6.30;;;2.05;;
73571;SDS011;61854;48.510;-2.770;2022-09-20T17:41:37;4.63;;;2.50;;
73571;SDS011;61854;48.510;-2.770;2022-09-20T17:44:04;3.45;;;2.00;;
73571;SDS011;61854;48.510;-2.770;2022-09-20T17:46:34;4.13;;;2.00;;
73571;SDS011;61854;48.510;-2.770;2022-09-20T17:49:03;3.72;;;2.20;;
73571;SDS011;61854;48.510;-2.770;2022-09-20T17:51:31;4.18;;;2.13;;
73571;SDS011;61854;48.510;-2.770;2022-09-20T17:54:01;3.13;;;1.90;;
73571;SDS011;61854;48.510;-2.770;2022-09-20T17:56:27;2.95;;;2.05;;
73571;SDS011;61854;48.510;-2.770;2022-09-20T17:58:58;3.83;;;2.07;;
73571;SDS011;61854;48.510;-2.770;2022-09-20T18:01:26;4.43;;;2.25;;
73571;SDS011;61854;48.510;-2.770;2022-09-20T18:03:55;4.15;;;1.70;;
73571;SDS011;61854;48.510;-2.770;2022-09-20T18:06:28;2.42;;;1.73;;
73571;SDS011;61854;48.510;-2.770;2022-09-20T18:08:57;2.22;;;1.40;;
73571;SDS011;61854;48.510;-2.770;2022-09-20T18:11:30;3.00;;;1.70;;
73571;SDS011;61854;48.510;-2.770;2022-09-20T18:14:08;2.80;;;1.58;;
73571;SDS011;61854;48.510;-2.770;2022-09-20T18:16:35;6.40;;;2.00;;
73571;SDS011;61854;48.510;-2.770;2022-09-20T18:19:01;2.90;;;1.80;;
73571;SDS011;61854;48.510;-2.770;2022-09-20T18:21:29;4.05;;;1.85;;
73571;SDS011;61854;48.510;-2.770;2022-09-20T18:23:55;2.90;;;1.60;;
73571;SDS011;61854;48.510;-2.770;2022-09-20T18:26:22;4.53;;;1.65;;
73571;SDS011;61854;48.510;-2.770;2022-09-20T18:28:53;5.45;;;1.90;;
73571;SDS011;61854;48.510;-2.770;2022-09-20T18:31:29;2.70;;;1.70;;
73571;SDS011;61854;48.510;-2.770;2022-09-20T18:33:57;3.53;;;1.80;;
73571;SDS011;61854;48.510;-2.770;2022-09-20T18:36:24;3.42;;;1.58;;
73571;SDS011;61854;48.510;-2.770;2022-09-20T18:38:52;2.85;;;1.60;;
73571;SDS011;61854;48.510;-2.770;2022-09-20T18:41:19;4.22;;;1.90;;
73571;SDS011;61854;48.510;-2.770;2022-09-20T18:46:12;3.35;;;1.60;;
73571;SDS011;61854;48.510;-2.770;2022-09-20T18:48:38;3.90;;;1.60;;
73571;SDS011;61854;48.510;-2.770;2022-09-20T18:51:04;4.63;;;1.42;;
73571;SDS011;61854;48.510;-2.770;2022-09-20T18:53:32;2.17;;;1.52;;
73571;SDS011;61854;48.510;-2.770;2022-09-20T18:56:18;4.30;;;1.55;;
73571;SDS011;61854;48.510;-2.770;2022-09-20T18:58:45;5.07;;;1.60;;
73571;SDS011;61854;48.510;-2.770;2022-09-20T19:04:21;4.63;;;1.90;;
73571;SDS011;61854;48.510;-2.770;2022-09-20T19:15:04;5.82;;;1.48;;
73571;SDS011;61854;48.510;-2.770;2022-09-20T19:17:57;3.20;;;1.25;;
73571;SDS011;61854;48.510;-2.770;2022-09-20T19:23:05;3.65;;;1.77;;
73571;SDS011;61854;48.510;-2.770;2022-09-20T19:25:48;3.92;;;1.35;;
73571;SDS011;61854;48.510;-2.770;2022-09-20T19:28:22;3.20;;;1.30;;
73571;SDS011;61854;48.510;-2.770;2022-09-20T19:30:47;2.22;;;1.33;;
73571;SDS011;61854;48.510;-2.770;2022-09-20T19:33:15;2.35;;;1.15;;
73571;SDS011;61854;48.510;-2.770;2022-09-20T19:35:42;3.10;;;1.20;;
73571;SDS011;61854;48.510;-2.770;2022-09-20T19:38:15;4.03;;;1.40;;
73571;SDS011;61854;48.510;-2.770;2022-09-20T19:41:30;1.88;;;1.00;;
73571;SDS011;61854;48.510;-2.770;2022-09-20T19:46:56;2.72;;;1.17;;
73571;SDS011;61854;48.510;-2.770;2022-09-20T19:52:11;2.03;;;0.95;;
73571;SDS011;61854;48.510;-2.770;2022-09-20T19:54:37;4.60;;;1.10;;
73571;SDS011;61854;48.510;-2.770;2022-09-20T19:57:06;2.72;;;0.95;;
73571;SDS011;61854;48.510;-2.770;2022-09-20T19:59:38;1.80;;;0.88;;
73571;SDS011;61854;48.510;-2.770;2022-09-20T20:02:04;4.70;;;0.90;;
73571;SDS011;61854;48.510;-2.770;2022-09-20T20:04:30;3.35;;;0.95;;
73571;SDS011;61854;48.510;-2.770;2022-09-20T20:06:58;2.60;;;1.20;;
73571;SDS011;61854;48.510;-2.770;2022-09-20T20:18:22;2.42;;;1.10;;
73571;SDS011;61854;48.510;-2.770;2022-09-20T20:20:57;2.72;;;1.00;;
73571;SDS011;61854;48.510;-2.770;2022-09-20T20:26:28;3.72;;;1.08;;
73571;SDS011;61854;48.510;-2.770;2022-09-20T20:28:55;4.43;;;1.40;;
73571;SDS011;61854;48.510;-2.770;2022-09-20T20:31:20;3.80;;;1.00;;
73571;SDS011;61854;48.510;-2.770;2022-09-20T20:33:47;2.78;;;1.10;;
73571;SDS011;61854;48.510;-2.770;2022-09-20T20:36:14;2.97;;;1.10;;
73571;SDS011;61854;48.510;-2.770;2022-09-20T20:38:40;2.83;;;0.98;;